createdAt,value
2023-06-10T00:03:48.530Z,100946.60
2023-06-10T00:08:52.428Z,100946.80
2023-06-10T00:13:55.376Z,100945.40
2023-06-10T00:19:02.311Z,100943.40
2023-06-10T00:24:07.601Z,100945.60
2023-06-10T00:29:10.593Z,100951.80
2023-06-10T00:34:13.649Z,100946.80
2023-06-10T00:39:17.780Z,100947.20
2023-06-10T00:44:20.961Z,100952.20
2023-06-10T00:49:25.087Z,100965.60
2023-06-10T00:54:28.442Z,100959.80
2023-06-10T00:59:32.326Z,100965.60
2023-06-10T01:04:38.722Z,100972.20
2023-06-10T01:10:08.358Z,100968.20
2023-06-10T01:15:27.499Z,100966.00
2023-06-10T01:20:33.480Z,100976.00
2023-06-10T01:25:59.253Z,100974.40
2023-06-10T01:31:35.213Z,100977.60
2023-06-10T01:36:43.692Z,100984.20
2023-06-10T01:41:48.901Z,100991.00
2023-06-10T01:46:53.863Z,100997.60
2023-06-10T01:51:56.724Z,100990.20
2023-06-10T01:56:59.476Z,101001.40
2023-06-10T02:02:03.458Z,101005.60
2023-06-10T02:07:09.642Z,101014.00
2023-06-10T02:12:12.790Z,101015.80
2023-06-10T02:17:15.826Z,101025.60
2023-06-10T02:22:20.508Z,101033.20
2023-06-10T02:27:25.739Z,101033.60
2023-06-10T02:32:29.413Z,101035.40
2023-06-10T02:37:32.290Z,101033.80
2023-06-10T02:42:36.264Z,101025.60
2023-06-10T02:47:44.093Z,101025.60
2023-06-10T02:52:49.022Z,101018.60
2023-06-10T02:57:52.101Z,101024.20
2023-06-10T03:02:58.707Z,101023.00
2023-06-10T03:08:01.823Z,101029.20
2023-06-10T03:13:06.964Z,101022.80
2023-06-10T03:18:09.673Z,101025.60
2023-06-10T03:23:12.732Z,101019.00
2023-06-10T03:28:15.915Z,101042.00
2023-06-10T03:33:23.239Z,101036.60
2023-06-10T03:38:25.989Z,101039.20
2023-06-10T03:43:28.825Z,101038.20
2023-06-10T03:48:32.182Z,101033.80
2023-06-10T03:53:38.160Z,101026.60
2023-06-10T03:58:45.930Z,101021.00
2023-06-10T04:03:52.285Z,101039.60
2023-06-10T04:08:55.246Z,101021.60
2023-06-10T04:13:57.975Z,101022.60
2023-06-10T04:19:01.859Z,101015.60
2023-06-10T04:24:05.418Z,101015.20
2023-06-10T04:29:18.085Z,101013.20
2023-06-10T04:34:20.753Z,101020.00
2023-06-10T04:39:23.698Z,101017.80
2023-06-10T04:44:26.435Z,101024.00
2023-06-10T04:49:31.126Z,101012.80
2023-06-10T04:54:33.906Z,101019.40
2023-06-10T04:59:38.665Z,101023.00
2023-06-10T05:04:44.050Z,101025.20
2023-06-10T05:09:50.717Z,101024.00
2023-06-10T05:14:53.479Z,101033.40
2023-06-10T05:19:57.237Z,101035.80
2023-06-10T05:24:59.806Z,101040.20
2023-06-10T05:30:05.679Z,101049.60
2023-06-10T05:35:08.685Z,101044.40
2023-06-10T05:40:12.705Z,101041.60
2023-06-10T05:45:15.600Z,101044.80
2023-06-10T05:50:18.569Z,101042.00
2023-06-10T05:55:22.575Z,101043.00
2023-06-10T06:00:25.379Z,101054.80
2023-06-10T06:05:36.007Z,101059.80
2023-06-10T06:10:39.129Z,101049.20
2023-06-10T06:15:41.819Z,101051.20
2023-06-10T06:20:44.719Z,101044.60
2023-06-10T06:25:47.404Z,101052.00
2023-06-10T06:30:50.087Z,101050.60
2023-06-10T06:35:54.886Z,101051.00
2023-06-10T06:40:57.892Z,101046.80
2023-06-10T06:46:03.445Z,101055.40
2023-06-10T06:51:06.369Z,101057.60
2023-06-10T06:56:09.177Z,101051.00
2023-06-10T07:01:11.938Z,101065.00
2023-06-10T07:06:15.964Z,101062.00
2023-06-10T07:11:21.254Z,101064.60
2023-06-10T07:16:29.128Z,101072.60
2023-06-10T07:21:33.290Z,101070.40
2023-06-10T07:26:37.214Z,101087.60
2023-06-10T07:31:41.686Z,101081.80
2023-06-10T07:36:44.415Z,101087.80
2023-06-10T07:41:47.105Z,101083.60
2023-06-10T07:46:50.469Z,101112.80
2023-06-10T07:51:56.127Z,101096.00
2023-06-10T07:56:58.780Z,101109.40
2023-06-10T08:02:01.527Z,101105.00
2023-06-10T08:07:04.757Z,101108.00
2023-06-10T08:12:08.808Z,101111.80
2023-06-10T08:17:11.969Z,101120.80
2023-06-10T08:22:15.924Z,101138.00
2023-06-10T08:27:19.159Z,101125.20
2023-06-10T08:32:21.930Z,101133.80
2023-06-10T08:37:25.685Z,101138.00
2023-06-10T08:42:46.809Z,101145.40
2023-06-10T08:47:54.480Z,101159.20
2023-06-10T08:53:00.166Z,101154.20
2023-06-10T08:58:04.982Z,101164.80
2023-06-10T09:03:10.318Z,101154.40
2023-06-10T09:08:16.421Z,101167.60
2023-06-10T09:13:20.104Z,101156.20
2023-06-10T09:18:24.144Z,101149.80
2023-06-10T09:23:27.353Z,101160.20
2023-06-10T09:28:30.518Z,101152.40
2023-06-10T09:33:35.574Z,101160.40
2023-06-10T09:38:39.082Z,101174.20
2023-06-10T09:43:47.540Z,101163.00
2023-06-10T09:48:53.397Z,101159.40
2023-06-10T09:54:02.169Z,101168.60
2023-06-10T09:59:07.358Z,101169.80
2023-06-10T10:04:09.986Z,101169.00
2023-06-10T10:09:18.952Z,101164.40
2023-06-10T10:14:23.712Z,101178.00
2023-06-10T10:19:48.327Z,101160.80
2023-06-10T10:24:56.489Z,101165.00
2023-06-10T10:30:13.714Z,101170.80
2023-06-10T10:35:24.719Z,101179.60
2023-06-10T10:40:32.888Z,101177.40
2023-06-10T10:45:37.407Z,101179.00
2023-06-10T10:50:41.791Z,101175.80
2023-06-10T10:56:08.043Z,101185.60
2023-06-10T11:01:18.405Z,101183.20
2023-06-10T11:06:23.183Z,101184.40
2023-06-10T11:11:29.205Z,101175.00
2023-06-10T11:16:44.339Z,101171.60
2023-06-10T11:22:18.903Z,101160.60
2023-06-10T11:27:28.491Z,101172.40
2023-06-10T11:32:36.432Z,101170.00
2023-06-10T11:37:43.386Z,101173.00
2023-06-10T11:42:46.982Z,101181.20
2023-06-10T11:48:00.727Z,101161.60
2023-06-10T11:53:12.362Z,101174.20
2023-06-10T11:58:26.266Z,101176.60
2023-06-10T12:03:40.952Z,101164.40
2023-06-10T12:08:45.162Z,101167.80
2023-06-10T12:13:51.686Z,101169.60
2023-06-10T12:19:04.238Z,101159.80
2023-06-10T12:24:12.649Z,101164.40
2023-06-10T12:29:26.050Z,101172.20
2023-06-10T12:34:31.474Z,101163.20
2023-06-10T12:39:35.406Z,101162.80
2023-06-10T12:44:42.447Z,101147.00
2023-06-10T12:49:48.388Z,101156.60
2023-06-10T12:54:51.222Z,101149.60
2023-06-10T12:59:55.714Z,101148.40
2023-06-10T13:04:58.507Z,101165.00
2023-06-10T13:10:04.050Z,101164.20
2023-06-10T13:15:11.169Z,101141.80
2023-06-10T13:20:14.207Z,101133.60
2023-06-10T13:25:18.726Z,101137.80
2023-06-10T13:30:21.774Z,101138.00
2023-06-10T13:35:24.516Z,101124.80
2023-06-10T13:40:28.136Z,101130.60
2023-06-10T13:45:31.470Z,101134.20
2023-06-10T13:50:34.301Z,101133.80
2023-06-10T13:55:39.161Z,101126.20
2023-06-10T14:00:42.181Z,101132.40
2023-06-10T14:05:44.883Z,101130.60
2023-06-10T14:10:52.451Z,101131.20
2023-06-10T14:15:55.631Z,101123.80
2023-06-10T14:21:00.577Z,101123.60
2023-06-10T14:26:09.431Z,101128.60
2023-06-10T14:31:12.127Z,101129.60
2023-06-10T14:36:17.347Z,101127.80
2023-06-10T14:41:20.021Z,101114.60
2023-06-10T14:46:22.992Z,101123.00
2023-06-10T14:51:27.805Z,101116.20
2023-06-10T14:56:35.083Z,101125.00
2023-06-10T15:01:40.297Z,101120.80
2023-06-10T15:06:44.497Z,101111.40
2023-06-10T15:11:48.648Z,101111.40
2023-06-10T15:16:51.809Z,101117.20
2023-06-10T15:21:55.050Z,101115.00
2023-06-10T15:26:59.107Z,101112.60
2023-06-10T15:32:02.072Z,101121.60
2023-06-10T15:37:05.366Z,101128.40
2023-06-10T15:42:08.279Z,101116.80
2023-06-10T15:47:12.161Z,101125.20
2023-06-10T15:52:15.857Z,101129.80
2023-06-10T15:57:18.703Z,101129.40
2023-06-10T16:02:21.677Z,101135.20
2023-06-10T16:07:27.229Z,101135.80
2023-06-10T16:12:29.976Z,101134.40
2023-06-10T16:17:33.482Z,101131.40
2023-06-10T16:22:36.752Z,101138.80
2023-06-10T16:27:39.370Z,101147.00
2023-06-10T16:32:44.269Z,101151.80
2023-06-10T16:37:47.170Z,101144.20
2023-06-10T16:42:50.968Z,101152.60
2023-06-10T16:47:55.187Z,101153.00
2023-06-10T16:53:02.927Z,101159.00
2023-06-10T16:58:08.591Z,101158.00
2023-06-10T17:03:15.104Z,101166.00
2023-06-10T17:08:18.035Z,101170.40
2023-06-10T17:13:21.268Z,101183.20
2023-06-10T17:18:24.213Z,101179.60
2023-06-10T17:23:30.168Z,101177.00
2023-06-10T17:28:35.042Z,101182.40
2023-06-10T17:33:38.239Z,101196.20
2023-06-10T17:38:43.252Z,101197.40
2023-06-10T17:43:46.077Z,101199.00
2023-06-10T17:48:51.819Z,101195.40
2023-06-10T17:53:54.516Z,101207.80
2023-06-10T17:58:57.346Z,101209.00
2023-06-10T18:04:07.953Z,101213.60
2023-06-10T18:09:15.210Z,101215.60
2023-06-10T18:14:17.972Z,101215.40
2023-06-10T18:19:22.961Z,101224.20
2023-06-10T18:24:25.944Z,101232.20
2023-06-10T18:29:28.779Z,101237.20
2023-06-10T18:34:31.841Z,101246.00
2023-06-10T18:39:36.161Z,101249.40
2023-06-10T18:44:38.939Z,101255.40
2023-06-10T18:49:48.710Z,101272.60
2023-06-10T18:54:55.179Z,101273.80
2023-06-10T18:59:58.334Z,101281.20
2023-06-10T19:05:02.667Z,101293.00
2023-06-10T19:10:08.380Z,101293.60
2023-06-10T19:15:12.127Z,101301.40
2023-06-10T19:20:16.367Z,101310.80
2023-06-10T19:25:23.312Z,101312.80
2023-06-10T19:30:26.029Z,101314.20
2023-06-10T19:35:29.153Z,101319.60
2023-06-10T19:40:35.209Z,101320.80
2023-06-10T19:45:38.135Z,101330.80
2023-06-10T19:50:41.205Z,101344.20
2023-06-10T19:55:44.390Z,101350.00
2023-06-10T20:00:48.838Z,101358.00
2023-06-10T20:05:51.935Z,101350.40
2023-06-10T20:10:56.391Z,101356.00
2023-06-10T20:16:02.935Z,101357.80
2023-06-10T20:21:07.139Z,101372.60
2023-06-10T20:26:10.029Z,101374.00
2023-06-10T20:31:22.945Z,101385.00
2023-06-10T20:36:29.618Z,101381.60
2023-06-10T20:41:35.499Z,101387.00
2023-06-10T20:46:38.635Z,101395.80
2023-06-10T20:51:43.641Z,101390.40
2023-06-10T20:56:49.425Z,101393.00
2023-06-10T21:01:52.525Z,101393.20
2023-06-10T21:06:57.965Z,101395.00
2023-06-10T21:12:02.065Z,101396.00
2023-06-10T21:17:05.182Z,101400.80
2023-06-10T21:22:08.659Z,101403.40
2023-06-10T21:27:12.205Z,101405.60
2023-06-10T21:32:15.540Z,101405.80
2023-06-10T21:37:18.324Z,101408.80
2023-06-10T21:42:22.585Z,101408.40
2023-06-10T21:47:25.455Z,101412.60
2023-06-10T21:52:28.384Z,101420.00
2023-06-10T21:57:31.251Z,101422.60
2023-06-10T22:02:33.984Z,101428.80
2023-06-10T22:07:42.216Z,101431.00
2023-06-10T22:12:44.994Z,101425.80
2023-06-10T22:17:47.803Z,101431.00
2023-06-10T22:22:50.696Z,101427.40
2023-06-10T22:27:53.526Z,101428.80
2023-06-10T22:32:56.411Z,101429.20
2023-06-10T22:37:59.369Z,101434.20
2023-06-10T22:43:02.242Z,101425.60
2023-06-10T22:48:05.573Z,101427.20
2023-06-10T22:53:08.531Z,101428.00
2023-06-10T22:58:11.551Z,101421.60
2023-06-10T23:03:14.395Z,101430.40
2023-06-10T23:08:19.720Z,101427.00
2023-06-10T23:13:22.615Z,101427.80
2023-06-10T23:18:25.332Z,101426.00
2023-06-10T23:23:39.299Z,101422.20
2023-06-10T23:28:43.153Z,101420.20
2023-06-10T23:33:47.022Z,101420.60
2023-06-10T23:38:49.945Z,101430.00
2023-06-10T23:43:54.083Z,101426.60
2023-06-10T23:48:56.718Z,101434.60
2023-06-10T23:54:02.409Z,101428.80
2023-06-10T23:59:05.114Z,101430.60
